This site, now in its 15th season, is a labour of love and fun from one of Ottawa's most avid time trialists and number crunchers. It adheres to and is permitted by the laws of Canada, promotes the objectives of every bicycle club whose results are shown, and is donated free of charge by myself for your enjoyment and usage. If you would like results from series you ride in to be shown here, give me (celia@drmath.ca) a shout!


Index Page
ATT OTT WTT AATT CFCTT VVVTT
Help resultformat:
Case-sensitive

OBC Open TT Series - 2009-Sep-10 - 15km (Rockliffe Pkwy) (EvtFactor = 0.9611)

Weather (18:00): Partly Cloudy. Temp.: 22C, Humidity: 50%, Dew Point: 11C, Wind: SSE 8km/h, Pressure: 102.9kPa, Vis: 24km, Humidex: *.
Weather (19:00): Partly Cloudy. Temp.: 20C, Humidity: 59%, Dew Point: 12C, Wind: ESE 8km/h, Pressure: 102.9kPa, Vis: 24km, Humidex: *.
Weather (20:00): Partly Cloudy. Temp.: 17C, Humidity: 70%, Dew Point: 11C, Wind: E 8km/h, Pressure: 102.9kPa, Vis: 24km, Humidex: *.

Send photos with description (when/where/what) of yourself on or off of bike to celia@drmath.ca

These results were first posted on the OBC site circa 21:30 on 2009-Sep-10 and are available here for your added pleasure and analysis.
We are hoping that the OBC Board consults a lawyer and quickly recants their latest foolish transgression against me (expulsion, sheeesh ) before they get into legal trouble!


There were some great performances from the youths tonight in this last OBC 15km time trial of 2009. Alex Cataford, second overall with his first sub-20 minute 15km time trial, set an all-time best for the male cadet category, while Ariane Bonhomme set the mark for the female minime category. These performances are all the more impressive considering how high the air pressure was. In all, 20 of the 74 who had ridden earlier in this series this season improved upon their previous season/series best while 14 of the 79 finishers bettered their previous 15km database best.

 
 

BESTS?
 
1 Fillion, Aaron  OBC 18:42 48.128 1/81 VAM 1/17 0.9449
Y 2 Cataford, Alex OBC 19:38 45.840 2/81 CAM 1/1 1.1551
3 van den Ham, Douglas  OBC/EMD 19:46 45.531 3/81 VAM 2/17 0.9600
4 Datars, Paul  OBC/RWR 20:00 45.000 4/81 VCM 1/16 0.9484
5 Hamilton, Peter OBC 20:09 44.665 5/81 VBM 1/16 1.0000
6 Schlatter, Sue  CYC 20:17 44.371 6/81 VBF 1/9 0.9901
7 Sudac, Rick  OBC/RWR 20:21 44.226 7/81 VDM 1/6 0.9612
8 Martel, Brad RWR 20:32 43.831 8/81 VBM 2/16 0.8989
9 Campbell, Colin  OBC 20:37 43.654 9/81 VBM 3/16 1.0493
Hawkes, Craig CYC 20:37 43.654 9/81 VAM 3/17 0.9383
11 Ferguson, James OBC 20:46 43.339 11/81 VBM 4/16 0.9620
12 Diaz, Rodrigo  OBC/EUR 20:56 42.994 12/81 VAM 4/17 1.0120
13 Cameron, Allen  OBC/RWR 21:02 42.789 13/81 VCM 2/16 0.9694
Corner, Doug  OBC 21:02 42.789 13/81 VCM 2/16 1.1032
15 Armstrong, Brian OBC 21:13 42.419 15/81 VBM 5/16 0.9929
Lapointe, Marc EMD 21:13 42.419 15/81 VAM 5/17 1.0142
17 Lefebvre, Jean-Pierre OBC 21:14 42.386 17/81 VAM 6/17 0.9400
18 Munden, David --- 21:18 42.254 18/81 VAM 7/17 0.8980
19 Sugden, David RDO 21:28 41.925 19/81 VBM 6/16 0.9700
s 20 Matte, Sophie  CYC 21:34 41.731 20/81 VAF 1/1 1.0376
21 McKay, Allison  OBC/RDO 21:36 41.667 21/81 VBF 2/9 0.9908
22 Farish, Neil  OBC/RWR 21:38 41.602 22/81 VCM 4/16 0.9522
23 Budgell, Glen  OBC 21:39 41.570 23/81 VCM 5/16 0.9301
24 Bilenkey, David OBC/EUR 21:40 41.538 24/81 VBM 7/16 1.0660
25 Burge, Craig  CYC 21:41 41.507 25/81 VBM 8/16 0.9258
Chedore, Paul ULT 21:41 41.507 25/81 VAM 8/17 0.9978
27 Morvan, Jacques  OBC 21:42 41.475 27/81 VDM 2/6 0.9172
28 Tomsic, David --- 21:54 41.096 28/81 VAM 9/17  
29 Posthuma, Hans  OBC 22:05 40.755 29/81 VCM 6/16 1.0046
30 Michel, Alexandre  WQW 22:08 40.663 30/81 VAM 10/17 1.0045
31 McCutcheon, Drew OBC 22:13 40.510 31/81 VAM 11/17 0.9866
Y 32 Revesz, Erika  OBC 22:16 40.419 32/81 VCF 1/4 1.0113
33 Hoover, Doug OBC 22:18 40.359 33/81 VCM 7/16 0.9472
34 Kerckhoff, Hermann  RWR 22:24 40.179 34/81 VEM 1/2 0.9691
35 Konov, Sergei OBC 22:27 40.089 35/81 VAM 12/17 0.9539
36 Voyer, Christian OBC 22:29 40.030 36/81 VAM 13/17 0.9519
37 DeVidi, Robert  OBC 22:30 40.000 37/81 VBM 9/16 0.9476
38 Trafford, Brian OBC 22:33 39.911 38/81 JUM 1/1 0.9736
39 Hess, Detlef OBC 22:42 39.648 39/81 VCM 8/16 0.9439
40 Davy, Andrew OBC 22:47 39.503 40/81 SEM 1/3 1.0582
41 Blais, Bob --- 22:48 39.474 41/81 VCM 9/16 1.0177
42 Cheney, Paul --- 22:53 39.330 42/81 VDM 3/6 1.0579
43 Burdett, Avery  OBC 23:07 38.933 43/81 VEM 2/2 0.8997
44 Burge, Larry  OBC 23:08 38.905 44/81 VBM 10/16 1.0065
45 Grace, Darrin  --- 23:09 38.877 45/81 VBM 11/16 1.0195
46 Leslie, Brian OBC 23:12 38.793 46/81 VAM 14/17 0.9765
47 Dorego, Jean-Louis OBC 23:14 38.737 47/81 VCM 10/16 0.9659
48 Wilkinson, Ross OBC 23:16 38.682 48/81 VBM 12/16 0.8746
49 Gerrard, David  OBC 23:21 38.544 49/81 VBM 13/16 0.7520
50 Wilkins, Carl  OBC 23:29 38.325 50/81 SEM 2/3 0.9873
51 Deavy, Carol  OBC 23:32 38.244 51/81 VBF 3/9 0.9979
52 Phelps, Ryan --- 23:35 38.163 52/81 SEM 3/3  
53 LaViolette, Nicole  OBC 23:46 37.868 53/81 VBF 4/9  
Y 54 Monast-Dore, Maxime OBC 23:52 37.709 54/81 MIM 1/2 1.0168
Pazdzior, Ellen  OBC 23:52 37.709 54/81 VCF 2/4 0.9586
56 Simard, Martin OBC 23:53 37.683 56/81 VCM 11/16 0.9526
57 Pelletier, Luc OBC 24:01 37.474 57/81 VAM 15/17 0.9773
58 Humphreys, Les  OBC/ABC 24:04 37.396 58/81 VDM 4/6 0.9651
59 McKay, Andrea  OBC 24:06 37.344 59/81 VBF 5/9 0.9814
60 Momtahan, Parham  OBC 24:10 37.241 60/81 VCM 12/16 0.9571
61 Austen, Ian  OBC 24:12 37.190 61/81 VCM 13/16 0.9897
62 Ingham, Alison  OBC/RWR 24:17 37.062 62/81 VBF 6/9 0.9454
63 Hicks, Bob  OBC 24:22 36.936 63/81 VDM 5/6  
64 Sinkus, Jason OBC 24:23 36.910 64/81 VAM 16/17  
65 Janusauskas, Vytas  OBC 24:24 36.885 65/81 VCM 14/16 0.9616
66 Couturier-Lamy, Felix OBC 24:31 36.710 66/81 MIM 2/2 1.0185
67 Imbrogno, Giorgio  OBC 24:36 36.585 67/81 VDM 6/6 0.9247
68 McInnis, Celia  OBC/ABC 24:55 36.120 68/81 VCF 3/4 0.9545
Y 69 Bonhomme, Ariane --- 25:02 35.952 69/81 MIF 1/1 1.1160
Datars, Sally OBC 25:02 35.952 69/81 VBF 7/9 0.9723
71 Plouffe, Yves OBC 25:12 35.714 71/81 VBM 14/16 0.9608
72 Hauschildt, Gunter OBC 25:18 35.573 72/81 VBM 15/16 0.8933
73 Samborsky, Mark OBC 25:35 35.179 73/81 VBM 16/16 0.8256
74 Konantz, Patricia  OBC 25:37 35.133 74/81 VCF 4/4 1.0496
75 McLaughlin, Brian OBC 25:44 34.974 75/81 VCM 15/16 0.9114
76 Nesdoly, Nina  OBC 25:47 34.906 76/81 CAF 1/1 1.0234
77 McLaren, Louise  OBC 26:37 33.813 77/81 VBF 8/9 0.9178
78 Wright, Geoffrey  OBC 30:41 29.332 78/81 VFM 1/1 0.9854
79 LeBrun, Robert OBC 32:35 27.621 79/81 VAM 17/17 0.9501
80 Blagdon, Wendy  CYC DNF   80/81 VBF 9/9  
Gagnon, Jules OBC DNF   80/81 VCM 16/16  
 
Average Speed of all of the above 79 finishes (1185km in 30:14:06):39.193
>>>Average of the Average Speeds for these 79 finishes39.518<<<
 

The number of data records shown above is 81
The server processing of your query took: 1 wallclock secs ( 0.11 usr + 0.01 sys = 0.12 CPU)

Thanks to our Helpers: Alexandre Gagnon, Gunter Hauschildt, Craig Henry, Alex McKnight, Stephanie Rees, Erika Revesz, Brian Robitaille, Erich Zappe.

     


Apr 10 (Good Friday)
May 5 (10km) May 7 May 12 (10km) May 14 May 19 May 19 (10km) May 21 May 26 May 26 (10km) May 28 May 31 (40km)
Jun 2 Jun 2 Jun 4 Jun 9 Jun 9 Jun 11 Jun 16 Jun 16 Jun 18 Jun 23 Jun 23 Jun 25 Jun 30 Jun 30
Jul 2 Jul 5 (40km) Jul 7 Jul 7 (10km) Jul 9 (10km) Jul 12 (40km) Jul 14 Jul 14 (10km) Jul 16 (10km) Jul 21 Jul 21 (10km) Jul 23 Jul 23 (10km) Jul 28 Jul 28 (10km) Jul 30 (10km)
Aug 4 (cancelled - thunder storm) Aug 4 (10km) (cancelled - thunder storm) Aug 6 (10km) Aug 9 (40km) Aug 11 Aug 11 (10km) Aug 13 (10km) Aug 18 Aug 18 (10km) Aug 20 (10km) (cancelled - construction) Aug 25 Aug 25 (Invitational) Aug 27
Sep 1 Sep 3 Sep 8
  Sep 10  
Sep 13 (40km) Sep 15 Sep 22 Sep 29

OTT Rankings
Best       Best by category
WTT Rankings for OBC Members
4 Best Speeds     4 Best Speeds by category
OBC Member Best Three 15km Rankings
Overall     by category     age-Hcap Female   age-Hcap Male
OBC BAR Ranking
Overall     by category     Rider "Consistency-Graph"
ABC BAR Ranking
Overall     by category     Rider "Consistency-Graph"
Other years
TT Calculator All TT People All TT events
ABC Home VVV Home
CKAP GOLD MEDAL
Other Links

Note: OTT data from 2003 through 2006-Apr-14 and 2007-Apr-06-? and WTT from 2008-? is taken from the official OBC site.

Please send your comments and suggestions to: Celia McInnis
Copyright © 1998-2011 Celia McInnis. All rights reserved. Links are welcomed.